sensor_id;sensor_type;location;lat;lon;timestamp;pressure;altitude;pressure_sealevel;temperature;humidity
56074;BME280;41950;55.840;37.442;2023-07-29T00:00:34;98712.44;;;15.58;97.32
56074;BME280;41950;55.840;37.442;2023-07-29T00:02:59;98722.03;;;15.58;96.93
56074;BME280;41950;55.840;37.442;2023-07-29T00:05:27;98630.13;;;14.99;96.21
56074;BME280;41950;55.840;37.442;2023-07-29T00:07:53;98717.22;;;15.50;96.91
56074;BME280;41950;55.840;37.442;2023-07-29T00:10:19;98721.53;;;15.51;96.88
56074;BME280;41950;55.840;37.442;2023-07-29T00:12:45;98699.25;;;15.44;96.83
56074;BME280;41950;55.840;37.442;2023-07-29T00:15:12;98701.53;;;15.50;96.79
56074;BME280;41950;55.840;37.442;2023-07-29T00:17:37;98695.38;;;15.51;97.07
56074;BME280;41950;55.840;37.442;2023-07-29T00:20:03;98686.09;;;15.45;96.92
56074;BME280;41950;55.840;37.442;2023-07-29T00:22:31;98548.03;;;14.55;97.38
56074;BME280;41950;55.840;37.442;2023-07-29T00:24:56;98611.09;;;14.97;97.72
56074;BME280;41950;55.840;37.442;2023-07-29T00:27:26;98714.28;;;15.56;97.88
56074;BME280;41950;55.840;37.442;2023-07-29T00:29:51;98721.19;;;15.57;97.66
56074;BME280;41950;55.840;37.442;2023-07-29T00:32:17;98592.38;;;14.72;97.07
56074;BME280;41950;55.840;37.442;2023-07-29T00:34:45;98674.72;;;15.29;97.08
56074;BME280;41950;55.840;37.442;2023-07-29T00:37:11;98671.53;;;15.24;96.90
56074;BME280;41950;55.840;37.442;2023-07-29T00:39:37;98699.88;;;15.32;96.88
56074;BME280;41950;55.840;37.442;2023-07-29T00:42:04;98709.38;;;15.50;96.92
56074;BME280;41950;55.840;37.442;2023-07-29T00:44:30;98705.84;;;15.51;97.04
56074;BME280;41950;55.840;37.442;2023-07-29T00:46:57;98630.66;;;15.06;96.95
56074;BME280;41950;55.840;37.442;2023-07-29T00:49:23;98617.66;;;15.04;96.65
56074;BME280;41950;55.840;37.442;2023-07-29T00:51:49;98672.19;;;15.28;96.88
56074;BME280;41950;55.840;37.442;2023-07-29T00:54:15;98649.25;;;15.17;97.14
56074;BME280;41950;55.840;37.442;2023-07-29T00:56:41;98654.06;;;15.25;97.12
56074;BME280;41950;55.840;37.442;2023-07-29T00:59:08;98628.00;;;15.07;97.23
56074;BME280;41950;55.840;37.442;2023-07-29T01:01:36;98536.03;;;14.50;97.11
56074;BME280;41950;55.840;37.442;2023-07-29T01:04:02;98646.47;;;15.20;97.21
56074;BME280;41950;55.840;37.442;2023-07-29T01:12:28;98651.28;;;15.28;96.41
56074;BME280;41950;55.840;37.442;2023-07-29T01:15:09;98693.00;;;15.46;96.27
56074;BME280;41950;55.840;37.442;2023-07-29T01:17:42;98675.63;;;15.45;96.06
56074;BME280;41950;55.840;37.442;2023-07-29T01:20:09;98640.31;;;15.21;96.46
56074;BME280;41950;55.840;37.442;2023-07-29T01:22:36;98593.72;;;14.96;96.39
56074;BME280;41950;55.840;37.442;2023-07-29T01:25:03;98633.25;;;15.23;96.35
56074;BME280;41950;55.840;37.442;2023-07-29T01:27:30;98661.53;;;15.48;96.47
56074;BME280;41950;55.840;37.442;2023-07-29T01:29:57;98648.28;;;15.35;96.58
56074;BME280;41950;55.840;37.442;2023-07-29T01:37:44;98659.25;;;15.42;96.94
56074;BME280;41950;55.840;37.442;2023-07-29T01:40:11;98457.19;;;14.27;96.85
56074;BME280;41950;55.840;37.442;2023-07-29T01:42:37;98635.59;;;15.28;97.28
56074;BME280;41950;55.840;37.442;2023-07-29T01:45:04;98599.38;;;15.04;97.36
56074;BME280;41950;55.840;37.442;2023-07-29T01:47:30;98581.94;;;15.05;97.89
56074;BME280;41950;55.840;37.442;2023-07-29T01:49:56;98622.69;;;15.25;97.78
56074;BME280;41950;55.840;37.442;2023-07-29T01:52:21;98518.13;;;14.60;98.04
56074;BME280;41950;55.840;37.442;2023-07-29T01:54:48;98586.72;;;14.97;98.13
56074;BME280;41950;55.840;37.442;2023-07-29T01:57:13;98545.00;;;14.79;98.17
56074;BME280;41950;55.840;37.442;2023-07-29T01:59:39;98594.56;;;14.97;98.30
56074;BME280;41950;55.840;37.442;2023-07-29T02:02:06;98660.53;;;15.35;98.33
56074;BME280;41950;55.840;37.442;2023-07-29T02:04:31;98598.25;;;14.93;98.54
56074;BME280;41950;55.840;37.442;2023-07-29T02:06:57;98664.97;;;15.33;98.51
56074;BME280;41950;55.840;37.442;2023-07-29T02:09:23;98659.72;;;15.33;98.50
56074;BME280;41950;55.840;37.442;2023-07-29T02:11:48;98622.69;;;15.09;98.50
56074;BME280;41950;55.840;37.442;2023-07-29T02:14:14;98623.59;;;15.08;98.47
56074;BME280;41950;55.840;37.442;2023-07-29T02:16:39;98660.06;;;15.27;98.72
56074;BME280;41950;55.840;37.442;2023-07-29T02:19:25;98603.56;;;14.91;98.64
56074;BME280;41950;55.840;37.442;2023-07-29T02:21:51;98651.09;;;15.15;98.53
56074;BME280;41950;55.840;37.442;2023-07-29T02:24:16;98689.50;;;15.30;98.83
56074;BME280;41950;55.840;37.442;2023-07-29T02:26:42;98596.22;;;14.82;98.96
56074;BME280;41950;55.840;37.442;2023-07-29T02:29:08;98686.66;;;15.35;99.31
56074;BME280;41950;55.840;37.442;2023-07-29T02:31:34;98665.78;;;15.18;99.10
56074;BME280;41950;55.840;37.442;2023-07-29T02:34:00;98677.00;;;15.20;99.16
56074;BME280;41950;55.840;37.442;2023-07-29T02:36:26;98682.31;;;15.18;99.19
56074;BME280;41950;55.840;37.442;2023-07-29T02:38:51;98595.81;;;14.72;98.82
56074;BME280;41950;55.840;37.442;2023-07-29T02:41:17;98645.50;;;15.05;98.96
56074;BME280;41950;55.840;37.442;2023-07-29T02:43:43;98608.56;;;14.78;98.99
56074;BME280;41950;55.840;37.442;2023-07-29T02:46:13;98699.66;;;15.36;99.10
56074;BME280;41950;55.840;37.442;2023-07-29T02:48:38;98621.84;;;14.91;99.46
56074;BME280;41950;55.840;37.442;2023-07-29T02:51:04;98661.56;;;15.15;99.40
56074;BME280;41950;55.840;37.442;2023-07-29T02:53:30;98679.38;;;15.24;99.18
56074;BME280;41950;55.840;37.442;2023-07-29T02:55:55;98635.19;;;15.02;99.24
56074;BME280;41950;55.840;37.442;2023-07-29T02:58:21;98632.81;;;14.98;99.22
56074;BME280;41950;55.840;37.442;2023-07-29T03:00:47;98620.94;;;14.92;99.43
56074;BME280;41950;55.840;37.442;2023-07-29T03:03:14;98603.50;;;14.75;99.27
56074;BME280;41950;55.840;37.442;2023-07-29T03:05:48;98517.91;;;14.30;100.00
56074;BME280;41950;55.840;37.442;2023-07-29T03:08:14;98523.75;;;14.35;100.00
56074;BME280;41950;55.840;37.442;2023-07-29T03:10:40;98473.22;;;14.19;99.92
56074;BME280;41950;55.840;37.442;2023-07-29T03:13:07;98582.31;;;14.81;99.92
56074;BME280;41950;55.840;37.442;2023-07-29T03:15:33;98606.69;;;14.98;99.73
56074;BME280;41950;55.840;37.442;2023-07-29T03:18:00;98566.25;;;14.72;99.97
56074;BME280;41950;55.840;37.442;2023-07-29T03:20:26;98569.53;;;14.75;99.84
56074;BME280;41950;55.840;37.442;2023-07-29T03:22:51;98658.88;;;15.32;99.91
56074;BME280;41950;55.840;37.442;2023-07-29T03:25:17;98593.28;;;14.88;99.93
56074;BME280;41950;55.840;37.442;2023-07-29T03:27:43;98642.84;;;15.23;100.00
56074;BME280;41950;55.840;37.442;2023-07-29T03:30:09;98660.44;;;15.36;100.00
56074;BME280;41950;55.840;37.442;2023-07-29T03:32:35;98645.69;;;15.35;100.00
56074;BME280;41950;55.840;37.442;2023-07-29T03:35:00;98582.09;;;15.02;100.00
56074;BME280;41950;55.840;37.442;2023-07-29T03:37:26;98605.81;;;15.14;100.00
56074;BME280;41950;55.840;37.442;2023-07-29T03:39:52;98567.00;;;14.91;100.00
56074;BME280;41950;55.840;37.442;2023-07-29T03:42:18;98539.53;;;14.67;100.00
56074;BME280;41950;55.840;37.442;2023-07-29T03:44:43;98648.97;;;15.39;100.00
56074;BME280;41950;55.840;37.442;2023-07-29T03:47:09;98595.91;;;15.04;99.81
56074;BME280;41950;55.840;37.442;2023-07-29T03:49:35;98598.31;;;15.08;100.00
56074;BME280;41950;55.840;37.442;2023-07-29T03:52:00;98439.16;;;14.22;100.00
56074;BME280;41950;55.840;37.442;2023-07-29T03:54:26;98582.31;;;15.14;100.00
56074;BME280;41950;55.840;37.442;2023-07-29T03:56:52;98621.72;;;15.43;100.00
56074;BME280;41950;55.840;37.442;2023-07-29T03:59:17;98459.38;;;14.51;100.00
56074;BME280;41950;55.840;37.442;2023-07-29T04:01:43;98614.47;;;15.48;99.35
56074;BME280;41950;55.840;37.442;2023-07-29T04:04:09;98620.47;;;15.50;99.44
56074;BME280;41950;55.840;37.442;2023-07-29T04:06:34;98583.88;;;15.34;99.33
56074;BME280;41950;55.840;37.442;2023-07-29T04:09:00;98557.53;;;15.22;99.37
56074;BME280;41950;55.840;37.442;2023-07-29T04:11:26;98439.59;;;14.47;99.24
56074;BME280;41950;55.840;37.442;2023-07-29T04:13:52;98611.84;;;15.48;99.44
56074;BME280;41950;55.840;37.442;2023-07-29T04:16:17;98610.19;;;15.47;99.50
56074;BME280;41950;55.840;37.442;2023-07-29T04:18:43;98578.56;;;15.36;99.19
56074;BME280;41950;55.840;37.442;2023-07-29T04:21:09;98579.03;;;15.27;99.26
56074;BME280;41950;55.840;37.442;2023-07-29T04:23:34;98546.66;;;15.13;99.12
56074;BME280;41950;55.840;37.442;2023-07-29T04:26:00;98609.91;;;15.52;99.17
56074;BME280;41950;55.840;37.442;2023-07-29T04:28:26;98586.31;;;15.37;99.52
56074;BME280;41950;55.840;37.442;2023-07-29T04:30:53;98524.53;;;15.03;99.60
56074;BME280;41950;55.840;37.442;2023-07-29T04:33:20;98598.34;;;15.56;99.26
56074;BME280;41950;55.840;37.442;2023-07-29T04:35:46;98577.94;;;15.46;99.38
56074;BME280;41950;55.840;37.442;2023-07-29T04:38:11;98608.47;;;15.63;99.35
56074;BME280;41950;55.840;37.442;2023-07-29T04:40:37;98585.63;;;15.50;99.43
56074;BME280;41950;55.840;37.442;2023-07-29T04:43:03;98602.75;;;15.55;98.83
56074;BME280;41950;55.840;37.442;2023-07-29T04:45:29;98608.53;;;15.62;99.26
56074;BME280;41950;55.840;37.442;2023-07-29T04:47:56;98604.16;;;15.62;98.75
56074;BME280;41950;55.840;37.442;2023-07-29T04:50:22;98396.59;;;14.37;98.34
56074;BME280;41950;55.840;37.442;2023-07-29T04:52:47;98460.19;;;14.69;98.50
56074;BME280;41950;55.840;37.442;2023-07-29T04:55:13;98549.44;;;15.26;98.59
56074;BME280;41950;55.840;37.442;2023-07-29T04:57:39;98558.03;;;15.28;98.25
56074;BME280;41950;55.840;37.442;2023-07-29T05:00:05;98587.13;;;15.54;98.71
56074;BME280;41950;55.840;37.442;2023-07-29T05:02:31;98546.91;;;15.25;98.33
56074;BME280;41950;55.840;37.442;2023-07-29T05:04:57;98563.09;;;15.31;98.45
56074;BME280;41950;55.840;37.442;2023-07-29T05:07:22;98517.53;;;15.04;98.37
56074;BME280;41950;55.840;37.442;2023-07-29T05:09:48;98552.81;;;15.28;98.13
56074;BME280;41950;55.840;37.442;2023-07-29T05:12:14;98603.75;;;15.53;98.16
56074;BME280;41950;55.840;37.442;2023-07-29T05:14:40;98550.59;;;15.21;98.02
56074;BME280;41950;55.840;37.442;2023-07-29T05:17:05;98539.47;;;15.17;98.64
56074;BME280;41950;55.840;37.442;2023-07-29T05:19:31;98558.13;;;15.42;98.58
56074;BME280;41950;55.840;37.442;2023-07-29T05:21:57;98585.59;;;15.67;98.48
56074;BME280;41950;55.840;37.442;2023-07-29T05:24:23;98530.56;;;15.37;98.24
56074;BME280;41950;55.840;37.442;2023-07-29T05:26:49;98567.19;;;15.68;97.78
56074;BME280;41950;55.840;37.442;2023-07-29T05:29:15;98498.56;;;15.32;97.19
56074;BME280;41950;55.840;37.442;2023-07-29T05:31:41;98575.84;;;15.85;96.98
56074;BME280;41950;55.840;37.442;2023-07-29T05:34:06;98532.84;;;15.59;96.82
56074;BME280;41950;55.840;37.442;2023-07-29T05:36:32;98581.09;;;15.85;96.76
56074;BME280;41950;55.840;37.442;2023-07-29T05:38:58;98570.38;;;15.89;96.70
56074;BME280;41950;55.840;37.442;2023-07-29T05:41:24;98537.31;;;15.72;96.93
56074;BME280;41950;55.840;37.442;2023-07-29T05:43:51;98523.53;;;15.53;96.17
56074;BME280;41950;55.840;37.442;2023-07-29T05:46:17;98457.78;;;15.13;95.91
56074;BME280;41950;55.840;37.442;2023-07-29T05:48:42;98564.53;;;15.84;96.61
56074;BME280;41950;55.840;37.442;2023-07-29T05:51:08;98534.88;;;15.69;96.31
56074;BME280;41950;55.840;37.442;2023-07-29T05:53:34;98555.34;;;15.77;95.91
56074;BME280;41950;55.840;37.442;2023-07-29T05:55:59;98574.50;;;15.93;95.68
56074;BME280;41950;55.840;37.442;2023-07-29T05:58:25;98574.50;;;15.93;95.63
56074;BME280;41950;55.840;37.442;2023-07-29T06:00:51;98579.06;;;15.90;95.81
56074;BME280;41950;55.840;37.442;2023-07-29T06:03:17;98512.81;;;15.58;95.81
56074;BME280;41950;55.840;37.442;2023-07-29T06:05:43;98561.25;;;15.81;95.24
56074;BME280;41950;55.840;37.442;2023-07-29T06:08:08;98541.13;;;15.67;95.22
56074;BME280;41950;55.840;37.442;2023-07-29T06:10:34;98545.34;;;15.69;95.09
56074;BME280;41950;55.840;37.442;2023-07-29T06:13:00;98568.75;;;15.87;95.35
56074;BME280;41950;55.840;37.442;2023-07-29T06:15:26;98523.72;;;15.50;95.36
56074;BME280;41950;55.840;37.442;2023-07-29T06:17:51;98544.66;;;15.66;95.27
56074;BME280;41950;55.840;37.442;2023-07-29T06:20:17;98612.38;;;16.02;95.35
56074;BME280;41950;55.840;37.442;2023-07-29T06:22:43;98606.97;;;16.05;95.65
56074;BME280;41950;55.840;37.442;2023-07-29T06:25:09;98530.53;;;15.53;95.20
56074;BME280;41950;55.840;37.442;2023-07-29T06:27:34;98626.31;;;16.02;95.43
56074;BME280;41950;55.840;37.442;2023-07-29T06:30:00;98627.16;;;16.03;95.61
56074;BME280;41950;55.840;37.442;2023-07-29T06:32:26;98622.59;;;16.06;96.15
56074;BME280;41950;55.840;37.442;2023-07-29T06:34:52;98632.13;;;16.07;96.47
56074;BME280;41950;55.840;37.442;2023-07-29T06:37:20;98632.22;;;16.06;96.62
56074;BME280;41950;55.840;37.442;2023-07-29T06:39:46;98635.94;;;16.02;96.43
56074;BME280;41950;55.840;37.442;2023-07-29T06:42:11;98611.31;;;15.90;96.62
56074;BME280;41950;55.840;37.442;2023-07-29T06:44:37;98638.66;;;16.00;96.62
56074;BME280;41950;55.840;37.442;2023-07-29T06:47:03;98640.06;;;16.06;96.43
56074;BME280;41950;55.840;37.442;2023-07-29T06:49:29;98594.69;;;15.75;96.99
56074;BME280;41950;55.840;37.442;2023-07-29T06:51:54;98645.47;;;16.03;97.36
56074;BME280;41950;55.840;37.442;2023-07-29T06:54:24;98619.16;;;15.90;97.72
56074;BME280;41950;55.840;37.442;2023-07-29T06:56:51;98567.72;;;15.58;97.57
56074;BME280;41950;55.840;37.442;2023-07-29T06:59:17;98606.09;;;15.74;97.70
56074;BME280;41950;55.840;37.442;2023-07-29T07:01:43;98613.09;;;15.74;97.74
56074;BME280;41950;55.840;37.442;2023-07-29T07:04:08;98572.28;;;15.54;97.92
56074;BME280;41950;55.840;37.442;2023-07-29T07:06:34;98645.84;;;15.97;97.62
56074;BME280;41950;55.840;37.442;2023-07-29T07:09:00;98646.75;;;15.96;97.56
56074;BME280;41950;55.840;37.442;2023-07-29T07:11:25;98659.31;;;16.05;97.76
56074;BME280;41950;55.840;37.442;2023-07-29T07:13:51;98625.56;;;15.85;97.52
56074;BME280;41950;55.840;37.442;2023-07-29T07:16:17;98669.34;;;16.13;97.61
56074;BME280;41950;55.840;37.442;2023-07-29T07:18:42;98661.34;;;16.00;97.28
56074;BME280;41950;55.840;37.442;2023-07-29T07:21:08;98644.31;;;15.93;97.43
56074;BME280;41950;55.840;37.442;2023-07-29T07:23:34;98631.31;;;15.91;98.03
56074;BME280;41950;55.840;37.442;2023-07-29T07:25:59;98666.84;;;16.11;98.01
56074;BME280;41950;55.840;37.442;2023-07-29T07:28:25;98670.13;;;16.15;98.12
56074;BME280;41950;55.840;37.442;2023-07-29T07:30:51;98597.31;;;15.75;97.91
56074;BME280;41950;55.840;37.442;2023-07-29T07:33:17;98667.59;;;16.29;97.70
56074;BME280;41950;55.840;37.442;2023-07-29T07:35:42;98597.22;;;15.93;97.62
56074;BME280;41950;55.840;37.442;2023-07-29T07:38:08;98661.63;;;16.41;97.40
56074;BME280;41950;55.840;37.442;2023-07-29T07:40:36;98641.31;;;16.30;96.77
56074;BME280;41950;55.840;37.442;2023-07-29T07:43:01;98663.16;;;16.45;96.49
56074;BME280;41950;55.840;37.442;2023-07-29T07:45:27;98616.25;;;16.26;96.65
56074;BME280;41950;55.840;37.442;2023-07-29T07:47:53;98658.31;;;16.53;95.75
56074;BME280;41950;55.840;37.442;2023-07-29T07:50:19;98627.50;;;16.43;95.63
56074;BME280;41950;55.840;37.442;2023-07-29T07:52:45;98638.28;;;16.68;95.94
56074;BME280;41950;55.840;37.442;2023-07-29T07:55:11;98629.25;;;16.88;94.17
56074;BME280;41950;55.840;37.442;2023-07-29T07:57:38;98585.38;;;16.61;93.34
56074;BME280;41950;55.840;37.442;2023-07-29T08:00:04;98658.56;;;17.09;92.90
56074;BME280;41950;55.840;37.442;2023-07-29T08:02:30;98628.34;;;17.03;93.20
56074;BME280;41950;55.840;37.442;2023-07-29T08:04:56;98655.31;;;17.34;91.81
56074;BME280;41950;55.840;37.442;2023-07-29T08:07:22;98591.25;;;17.09;91.83
56074;BME280;41950;55.840;37.442;2023-07-29T08:09:47;98652.97;;;17.72;91.21
56074;BME280;41950;55.840;37.442;2023-07-29T08:12:13;98661.59;;;17.74;89.79
56074;BME280;41950;55.840;37.442;2023-07-29T08:14:39;98576.09;;;17.00;89.33
56074;BME280;41950;55.840;37.442;2023-07-29T08:17:05;98656.44;;;17.58;89.64
56074;BME280;41950;55.840;37.442;2023-07-29T08:19:30;98664.66;;;17.66;89.70
56074;BME280;41950;55.840;37.442;2023-07-29T08:21:56;98635.16;;;17.48;89.71
56074;BME280;41950;55.840;37.442;2023-07-29T08:24:22;98654.75;;;17.57;90.24
56074;BME280;41950;55.840;37.442;2023-07-29T08:26:48;98661.28;;;17.64;89.59
56074;BME280;41950;55.840;37.442;2023-07-29T08:29:16;98658.22;;;17.57;89.19
56074;BME280;41950;55.840;37.442;2023-07-29T08:31:41;98664.94;;;17.47;86.05
56074;BME280;41950;55.840;37.442;2023-07-29T08:34:07;98661.41;;;17.34;86.24
56074;BME280;41950;55.840;37.442;2023-07-29T08:36:33;98641.72;;;17.13;87.56
56074;BME280;41950;55.840;37.442;2023-07-29T08:38:58;98667.03;;;17.28;87.65
56074;BME280;41950;55.840;37.442;2023-07-29T08:44:22;98618.59;;;17.05;87.10
56074;BME280;41950;55.840;37.442;2023-07-29T08:46:49;98661.41;;;17.34;87.10
56074;BME280;41950;55.840;37.442;2023-07-29T08:49:16;98657.56;;;17.40;86.50
56074;BME280;41950;55.840;37.442;2023-07-29T08:51:48;98635.38;;;17.31;86.52
56074;BME280;41950;55.840;37.442;2023-07-29T08:54:15;98625.72;;;17.17;85.50
56074;BME280;41950;55.840;37.442;2023-07-29T08:56:42;98657.84;;;17.35;85.51
56074;BME280;41950;55.840;37.442;2023-07-29T08:59:09;98647.00;;;17.27;85.48
56074;BME280;41950;55.840;37.442;2023-07-29T09:01:40;98644.53;;;17.38;85.78
56074;BME280;41950;55.840;37.442;2023-07-29T09:04:06;98651.84;;;17.47;86.02
56074;BME280;41950;55.840;37.442;2023-07-29T09:06:32;98634.31;;;17.48;85.44
56074;BME280;41950;55.840;37.442;2023-07-29T09:08:59;98654.38;;;17.63;84.93
56074;BME280;41950;55.840;37.442;2023-07-29T09:11:25;98659.50;;;17.65;84.58
56074;BME280;41950;55.840;37.442;2023-07-29T09:13:51;98591.44;;;17.20;85.49
56074;BME280;41950;55.840;37.442;2023-07-29T09:16:18;98642.28;;;17.46;86.67
56074;BME280;41950;55.840;37.442;2023-07-29T09:18:47;98657.09;;;17.61;87.66
56074;BME280;41950;55.840;37.442;2023-07-29T09:21:15;98652.13;;;17.71;86.10
56074;BME280;41950;55.840;37.442;2023-07-29T09:23:42;98611.38;;;17.37;85.71
56074;BME280;41950;55.840;37.442;2023-07-29T09:26:10;98655.50;;;17.59;86.92
56074;BME280;41950;55.840;37.442;2023-07-29T09:28:37;98660.84;;;17.43;87.05
56074;BME280;41950;55.840;37.442;2023-07-29T09:31:04;98664.00;;;17.48;86.72
56074;BME280;41950;55.840;37.442;2023-07-29T09:33:33;98671.22;;;17.45;86.61
56074;BME280;41950;55.840;37.442;2023-07-29T09:36:01;98660.47;;;17.35;87.36
56074;BME280;41950;55.840;37.442;2023-07-29T09:38:28;98672.66;;;17.36;86.56
56074;BME280;41950;55.840;37.442;2023-07-29T09:40:57;98672.75;;;17.35;86.42
56074;BME280;41950;55.840;37.442;2023-07-29T09:43:31;98678.91;;;17.34;86.74
56074;BME280;41950;55.840;37.442;2023-07-29T09:46:04;98681.16;;;17.25;86.54
56074;BME280;41950;55.840;37.442;2023-07-29T09:48:36;98683.38;;;17.17;86.63
56074;BME280;41950;55.840;37.442;2023-07-29T09:51:14;98640.94;;;16.96;86.58
56074;BME280;41950;55.840;37.442;2023-07-29T09:53:43;98678.47;;;17.27;86.78
56074;BME280;41950;55.840;37.442;2023-07-29T09:56:10;98635.53;;;17.14;87.43
56074;BME280;41950;55.840;37.442;2023-07-29T09:58:36;98662.63;;;17.43;87.63
56074;BME280;41950;55.840;37.442;2023-07-29T10:01:05;98658.00;;;17.46;87.10
56074;BME280;41950;55.840;37.442;2023-07-29T10:03:34;98671.59;;;17.53;87.40
56074;BME280;41950;55.840;37.442;2023-07-29T10:06:02;98655.69;;;17.56;87.32
56074;BME280;41950;55.840;37.442;2023-07-29T10:08:30;98671.34;;;17.72;87.03
56074;BME280;41950;55.840;37.442;2023-07-29T10:11:07;98663.91;;;17.64;84.19
56074;BME280;41950;55.840;37.442;2023-07-29T10:13:34;98677.31;;;17.59;84.28
56074;BME280;41950;55.840;37.442;2023-07-29T10:16:00;98657.56;;;17.40;85.07
56074;BME280;41950;55.840;37.442;2023-07-29T10:18:30;98690.25;;;17.63;85.78
56074;BME280;41950;55.840;37.442;2023-07-29T10:20:58;98688.97;;;17.70;84.73
56074;BME280;41950;55.840;37.442;2023-07-29T10:23:25;98688.56;;;17.76;84.91
56074;BME280;41950;55.840;37.442;2023-07-29T10:26:01;98685.94;;;17.76;84.52
56074;BME280;41950;55.840;37.442;2023-07-29T10:28:29;98650.16;;;17.60;84.96
56074;BME280;41950;55.840;37.442;2023-07-29T10:30:56;98691.19;;;17.76;84.71
56074;BME280;41950;55.840;37.442;2023-07-29T10:33:22;98664.97;;;17.61;85.16
56074;BME280;41950;55.840;37.442;2023-07-29T10:35:48;98632.00;;;17.29;85.07
56074;BME280;41950;55.840;37.442;2023-07-29T10:38:15;98675.75;;;17.57;85.88
56074;BME280;41950;55.840;37.442;2023-07-29T10:40:52;98631.53;;;17.37;86.34
56074;BME280;41950;55.840;37.442;2023-07-29T10:43:34;98687.91;;;17.86;86.81
56074;BME280;41950;55.840;37.442;2023-07-29T10:46:20;98673.38;;;17.95;86.03
56074;BME280;41950;55.840;37.442;2023-07-29T10:53:47;98685.69;;;18.21;85.21
56074;BME280;41950;55.840;37.442;2023-07-29T10:56:13;98629.06;;;18.03;85.17
56074;BME280;41950;55.840;37.442;2023-07-29T10:58:38;98649.44;;;18.27;84.73
56074;BME280;41950;55.840;37.442;2023-07-29T11:01:26;98634.84;;;18.22;84.81
56074;BME280;41950;55.840;37.442;2023-07-29T11:15:24;98533.09;;;17.31;85.65
56074;BME280;41950;55.840;37.442;2023-07-29T11:20:17;98677.94;;;18.33;86.09
56074;BME280;41950;55.840;37.442;2023-07-29T11:22:43;98588.66;;;17.79;84.88
56074;BME280;41950;55.840;37.442;2023-07-29T11:25:14;98655.84;;;18.22;84.44
56074;BME280;41950;55.840;37.442;2023-07-29T11:27:41;98631.72;;;18.03;84.59
56074;BME280;41950;55.840;37.442;2023-07-29T11:30:11;98671.91;;;18.45;83.80
56074;BME280;41950;55.840;37.442;2023-07-29T11:32:38;98670.63;;;18.38;83.93
56074;BME280;41950;55.840;37.442;2023-07-29T11:35:12;98662.66;;;18.39;84.11
56074;BME280;41950;55.840;37.442;2023-07-29T11:37:41;98686.94;;;18.56;83.98
56074;BME280;41950;55.840;37.442;2023-07-29T11:40:08;98659.59;;;18.45;83.66
56074;BME280;41950;55.840;37.442;2023-07-29T11:42:37;98691.34;;;18.69;82.70
56074;BME280;41950;55.840;37.442;2023-07-29T11:45:13;98652.13;;;18.39;82.59
56074;BME280;41950;55.840;37.442;2023-07-29T11:47:38;98706.28;;;18.69;81.93
56074;BME280;41950;55.840;37.442;2023-07-29T11:50:07;98700.06;;;18.70;81.98
56074;BME280;41950;55.840;37.442;2023-07-29T11:52:38;98709.94;;;18.66;82.22
56074;BME280;41950;55.840;37.442;2023-07-29T11:55:05;98661.00;;;18.24;81.64
56074;BME280;41950;55.840;37.442;2023-07-29T11:57:34;98711.75;;;18.51;82.57
56074;BME280;41950;55.840;37.442;2023-07-29T12:00:02;98712.91;;;18.47;81.54
56074;BME280;41950;55.840;37.442;2023-07-29T12:02:30;98680.72;;;18.17;81.13
56074;BME280;41950;55.840;37.442;2023-07-29T12:04:57;98685.34;;;18.13;81.97
56074;BME280;41950;55.840;37.442;2023-07-29T12:07:23;98710.78;;;18.40;78.97
56074;BME280;41950;55.840;37.442;2023-07-29T12:09:49;98641.03;;;17.80;78.96
56074;BME280;41950;55.840;37.442;2023-07-29T12:12:15;98695.63;;;18.16;79.21
56074;BME280;41950;55.840;37.442;2023-07-29T12:14:47;98712.47;;;18.27;79.70
56074;BME280;41950;55.840;37.442;2023-07-29T12:17:13;98700.63;;;18.34;79.40
56074;BME280;41950;55.840;37.442;2023-07-29T12:19:41;98714.69;;;18.47;78.76
56074;BME280;41950;55.840;37.442;2023-07-29T12:22:09;98703.94;;;18.37;76.15
56074;BME280;41950;55.840;37.442;2023-07-29T12:24:38;98688.41;;;18.20;76.42
56074;BME280;41950;55.840;37.442;2023-07-29T12:27:04;98708.50;;;18.34;74.91
56074;BME280;41950;55.840;37.442;2023-07-29T12:29:30;98622.78;;;17.79;74.00
56074;BME280;41950;55.840;37.442;2023-07-29T12:32:01;98686.81;;;18.17;72.76
56074;BME280;41950;55.840;37.442;2023-07-29T12:34:28;98669.06;;;17.94;73.52
56074;BME280;41950;55.840;37.442;2023-07-29T12:36:57;98619.16;;;17.67;74.96
56074;BME280;41950;55.840;37.442;2023-07-29T12:39:31;98700.91;;;18.16;74.80
56074;BME280;41950;55.840;37.442;2023-07-29T12:41:59;98676.00;;;17.95;74.50
56074;BME280;41950;55.840;37.442;2023-07-29T12:44:29;98685.91;;;18.04;75.81
56074;BME280;41950;55.840;37.442;2023-07-29T12:46:55;98699.22;;;18.15;76.50
56074;BME280;41950;55.840;37.442;2023-07-29T12:49:20;98705.31;;;18.16;76.24
56074;BME280;41950;55.840;37.442;2023-07-29T12:51:47;98664.94;;;17.90;75.46
56074;BME280;41950;55.840;37.442;2023-07-29T12:54:14;98648.66;;;17.71;74.17
56074;BME280;41950;55.840;37.442;2023-07-29T12:56:39;98695.31;;;17.94;75.65
56074;BME280;41950;55.840;37.442;2023-07-29T12:59:07;98683.13;;;17.93;77.74
56074;BME280;41950;55.840;37.442;2023-07-29T13:01:32;98687.72;;;17.89;77.35
56074;BME280;41950;55.840;37.442;2023-07-29T13:03:58;98694.66;;;17.90;77.51
56074;BME280;41950;55.840;37.442;2023-07-29T13:06:24;98707.03;;;17.88;76.36
56074;BME280;41950;55.840;37.442;2023-07-29T13:08:49;98704.88;;;17.95;76.01
56074;BME280;41950;55.840;37.442;2023-07-29T13:11:16;98646.97;;;17.70;75.78
56074;BME280;41950;55.840;37.442;2023-07-29T13:13:42;98702.97;;;18.11;76.72
56074;BME280;41950;55.840;37.442;2023-07-29T13:16:08;98695.28;;;18.08;76.36
56074;BME280;41950;55.840;37.442;2023-07-29T13:18:34;98669.41;;;18.02;75.56
56074;BME280;41950;55.840;37.442;2023-07-29T13:20:59;98681.56;;;18.17;74.83